sensor_id;sensor_type;location;lat;lon;timestamp;P1;durP1;ratioP1;P2;durP2;ratioP2
20069;SDS011;10195;50.868;4.382;2022-11-28T00:01:23;5.10;;;3.03;;
20069;SDS011;10195;50.868;4.382;2022-11-28T00:04:00;6.13;;;2.90;;
20069;SDS011;10195;50.868;4.382;2022-11-28T00:06:26;3.80;;;2.87;;
20069;SDS011;10195;50.868;4.382;2022-11-28T00:08:52;5.47;;;2.97;;
20069;SDS011;10195;50.868;4.382;2022-11-28T00:11:18;5.47;;;2.80;;
20069;SDS011;10195;50.868;4.382;2022-11-28T00:13:44;3.67;;;2.47;;
20069;SDS011;10195;50.868;4.382;2022-11-28T00:16:17;5.20;;;2.53;;
20069;SDS011;10195;50.868;4.382;2022-11-28T00:18:52;4.33;;;2.37;;
20069;SDS011;10195;50.868;4.382;2022-11-28T00:21:19;6.30;;;2.90;;
20069;SDS011;10195;50.868;4.382;2022-11-28T00:23:46;5.60;;;2.90;;
20069;SDS011;10195;50.868;4.382;2022-11-28T00:26:34;5.60;;;3.00;;
20069;SDS011;10195;50.868;4.382;2022-11-28T00:29:00;4.93;;;3.00;;
20069;SDS011;10195;50.868;4.382;2022-11-28T00:31:29;4.60;;;2.83;;
20069;SDS011;10195;50.868;4.382;2022-11-28T00:34:00;4.87;;;2.60;;
20069;SDS011;10195;50.868;4.382;2022-11-28T00:36:31;6.80;;;2.80;;
20069;SDS011;10195;50.868;4.382;2022-11-28T00:38:57;4.53;;;2.67;;
20069;SDS011;10195;50.868;4.382;2022-11-28T00:41:32;4.93;;;2.83;;
20069;SDS011;10195;50.868;4.382;2022-11-28T00:44:06;7.40;;;3.07;;
20069;SDS011;10195;50.868;4.382;2022-11-28T00:46:31;5.10;;;3.00;;
20069;SDS011;10195;50.868;4.382;2022-11-28T00:48:58;6.40;;;3.13;;
20069;SDS011;10195;50.868;4.382;2022-11-28T00:51:25;4.40;;;2.57;;
20069;SDS011;10195;50.868;4.382;2022-11-28T00:53:53;5.87;;;3.10;;
20069;SDS011;10195;50.868;4.382;2022-11-28T00:56:21;4.70;;;3.10;;
20069;SDS011;10195;50.868;4.382;2022-11-28T00:58:52;5.80;;;3.20;;
20069;SDS011;10195;50.868;4.382;2022-11-28T01:01:19;4.40;;;3.00;;
20069;SDS011;10195;50.868;4.382;2022-11-28T01:03:49;6.03;;;3.07;;
20069;SDS011;10195;50.868;4.382;2022-11-28T01:06:24;4.00;;;2.90;;
20069;SDS011;10195;50.868;4.382;2022-11-28T01:08:55;6.50;;;3.30;;
20069;SDS011;10195;50.868;4.382;2022-11-28T01:11:23;5.07;;;3.03;;
20069;SDS011;10195;50.868;4.382;2022-11-28T01:13:49;3.83;;;2.90;;
20069;SDS011;10195;50.868;4.382;2022-11-28T01:16:19;5.33;;;3.03;;
20069;SDS011;10195;50.868;4.382;2022-11-28T01:18:44;6.03;;;3.27;;
20069;SDS011;10195;50.868;4.382;2022-11-28T01:21:10;9.03;;;3.50;;
20069;SDS011;10195;50.868;4.382;2022-11-28T01:23:35;6.00;;;2.97;;
20069;SDS011;10195;50.868;4.382;2022-11-28T01:26:02;7.17;;;3.00;;
20069;SDS011;10195;50.868;4.382;2022-11-28T01:28:28;4.90;;;3.20;;
20069;SDS011;10195;50.868;4.382;2022-11-28T01:31:01;5.17;;;3.27;;
20069;SDS011;10195;50.868;4.382;2022-11-28T01:33:28;4.47;;;2.87;;
20069;SDS011;10195;50.868;4.382;2022-11-28T01:35:55;6.97;;;3.37;;
20069;SDS011;10195;50.868;4.382;2022-11-28T01:38:22;6.00;;;3.37;;
20069;SDS011;10195;50.868;4.382;2022-11-28T01:40:47;4.93;;;3.70;;
20069;SDS011;10195;50.868;4.382;2022-11-28T01:43:13;7.47;;;3.17;;
20069;SDS011;10195;50.868;4.382;2022-11-28T01:45:42;5.90;;;3.73;;
20069;SDS011;10195;50.868;4.382;2022-11-28T01:48:12;7.30;;;3.60;;
20069;SDS011;10195;50.868;4.382;2022-11-28T01:50:40;6.70;;;3.60;;
20069;SDS011;10195;50.868;4.382;2022-11-28T01:53:08;5.90;;;3.83;;
20069;SDS011;10195;50.868;4.382;2022-11-28T01:55:37;5.13;;;3.47;;
20069;SDS011;10195;50.868;4.382;2022-11-28T01:58:08;7.63;;;3.50;;
20069;SDS011;10195;50.868;4.382;2022-11-28T02:00:35;5.83;;;3.90;;
20069;SDS011;10195;50.868;4.382;2022-11-28T02:03:17;6.03;;;3.37;;
20069;SDS011;10195;50.868;4.382;2022-11-28T02:05:51;6.93;;;3.40;;
20069;SDS011;10195;50.868;4.382;2022-11-28T02:08:18;6.60;;;3.40;;
20069;SDS011;10195;50.868;4.382;2022-11-28T02:13:16;6.17;;;3.30;;
20069;SDS011;10195;50.868;4.382;2022-11-28T02:21:19;4.50;;;3.47;;
20069;SDS011;10195;50.868;4.382;2022-11-28T02:26:52;4.77;;;3.40;;
20069;SDS011;10195;50.868;4.382;2022-11-28T02:37:54;5.87;;;3.57;;
20069;SDS011;10195;50.868;4.382;2022-11-28T02:40:22;4.60;;;3.60;;
20069;SDS011;10195;50.868;4.382;2022-11-28T02:54:07;5.53;;;3.60;;
20069;SDS011;10195;50.868;4.382;2022-11-28T02:56:38;5.07;;;3.73;;
20069;SDS011;10195;50.868;4.382;2022-11-28T03:01:55;5.77;;;3.33;;
20069;SDS011;10195;50.868;4.382;2022-11-28T03:12:38;5.23;;;3.40;;
20069;SDS011;10195;50.868;4.382;2022-11-28T03:15:16;3.80;;;3.20;;
20069;SDS011;10195;50.868;4.382;2022-11-28T03:17:58;4.23;;;3.40;;
20069;SDS011;10195;50.868;4.382;2022-11-28T03:23:15;4.83;;;3.60;;
20069;SDS011;10195;50.868;4.382;2022-11-28T03:28:39;5.23;;;3.63;;
20069;SDS011;10195;50.868;4.382;2022-11-28T03:31:12;5.87;;;3.77;;
20069;SDS011;10195;50.868;4.382;2022-11-28T03:33:52;5.30;;;3.67;;
20069;SDS011;10195;50.868;4.382;2022-11-28T03:36:22;4.87;;;3.43;;
20069;SDS011;10195;50.868;4.382;2022-11-28T03:39:00;5.77;;;3.70;;
20069;SDS011;10195;50.868;4.382;2022-11-28T03:41:35;3.67;;;3.10;;
20069;SDS011;10195;50.868;4.382;2022-11-28T03:44:09;5.67;;;4.00;;
20069;SDS011;10195;50.868;4.382;2022-11-28T03:46:40;3.87;;;3.20;;
20069;SDS011;10195;50.868;4.382;2022-11-28T03:49:13;4.33;;;3.50;;
20069;SDS011;10195;50.868;4.382;2022-11-28T03:51:48;4.60;;;3.17;;
20069;SDS011;10195;50.868;4.382;2022-11-28T03:57:12;3.83;;;3.00;;
20069;SDS011;10195;50.868;4.382;2022-11-28T03:59:46;4.83;;;3.60;;
20069;SDS011;10195;50.868;4.382;2022-11-28T04:02:19;4.37;;;3.23;;
20069;SDS011;10195;50.868;4.382;2022-11-28T04:12:53;4.13;;;3.40;;
20069;SDS011;10195;50.868;4.382;2022-11-28T04:18:29;4.00;;;3.30;;
20069;SDS011;10195;50.868;4.382;2022-11-28T04:21:21;4.37;;;3.80;;
20069;SDS011;10195;50.868;4.382;2022-11-28T04:24:02;4.83;;;3.60;;
20069;SDS011;10195;50.868;4.382;2022-11-28T04:26:33;3.93;;;2.97;;
20069;SDS011;10195;50.868;4.382;2022-11-28T04:29:14;3.97;;;3.53;;
20069;SDS011;10195;50.868;4.382;2022-11-28T04:31:42;4.33;;;3.60;;
20069;SDS011;10195;50.868;4.382;2022-11-28T04:34:10;4.37;;;3.83;;
20069;SDS011;10195;50.868;4.382;2022-11-28T04:36:40;5.47;;;4.13;;
20069;SDS011;10195;50.868;4.382;2022-11-28T04:39:11;4.87;;;4.10;;
20069;SDS011;10195;50.868;4.382;2022-11-28T04:41:41;5.70;;;5.03;;
20069;SDS011;10195;50.868;4.382;2022-11-28T04:46:43;6.73;;;5.37;;
20069;SDS011;10195;50.868;4.382;2022-11-28T04:49:12;7.80;;;5.40;;
20069;SDS011;10195;50.868;4.382;2022-11-28T04:54:26;6.97;;;5.67;;
20069;SDS011;10195;50.868;4.382;2022-11-28T04:59:39;7.80;;;5.80;;
20069;SDS011;10195;50.868;4.382;2022-11-28T05:02:06;7.47;;;5.77;;
20069;SDS011;10195;50.868;4.382;2022-11-28T05:04:33;8.37;;;6.37;;
20069;SDS011;10195;50.868;4.382;2022-11-28T05:07:01;8.47;;;6.47;;
20069;SDS011;10195;50.868;4.382;2022-11-28T05:09:28;9.00;;;6.30;;
20069;SDS011;10195;50.868;4.382;2022-11-28T05:11:53;8.80;;;6.03;;
20069;SDS011;10195;50.868;4.382;2022-11-28T05:14:19;8.90;;;6.00;;
20069;SDS011;10195;50.868;4.382;2022-11-28T05:16:45;8.40;;;6.20;;
20069;SDS011;10195;50.868;4.382;2022-11-28T05:19:10;8.27;;;6.17;;
20069;SDS011;10195;50.868;4.382;2022-11-28T05:21:36;9.00;;;6.67;;
20069;SDS011;10195;50.868;4.382;2022-11-28T05:24:01;9.00;;;6.80;;
20069;SDS011;10195;50.868;4.382;2022-11-28T05:26:28;9.70;;;7.00;;
20069;SDS011;10195;50.868;4.382;2022-11-28T05:28:56;8.30;;;6.30;;
20069;SDS011;10195;50.868;4.382;2022-11-28T05:31:22;9.63;;;7.17;;
20069;SDS011;10195;50.868;4.382;2022-11-28T05:33:48;9.27;;;6.73;;
20069;SDS011;10195;50.868;4.382;2022-11-28T05:36:14;9.60;;;7.10;;
20069;SDS011;10195;50.868;4.382;2022-11-28T05:38:41;8.87;;;6.97;;
20069;SDS011;10195;50.868;4.382;2022-11-28T05:41:08;9.50;;;7.00;;
20069;SDS011;10195;50.868;4.382;2022-11-28T05:43:41;10.17;;;7.03;;
20069;SDS011;10195;50.868;4.382;2022-11-28T05:46:07;9.10;;;7.00;;
20069;SDS011;10195;50.868;4.382;2022-11-28T05:48:32;8.70;;;7.30;;
20069;SDS011;10195;50.868;4.382;2022-11-28T05:50:59;9.87;;;7.60;;
20069;SDS011;10195;50.868;4.382;2022-11-28T05:53:24;9.00;;;7.63;;
20069;SDS011;10195;50.868;4.382;2022-11-28T05:55:50;8.93;;;7.50;;
20069;SDS011;10195;50.868;4.382;2022-11-28T05:58:16;9.97;;;7.90;;
20069;SDS011;10195;50.868;4.382;2022-11-28T06:00:41;9.03;;;7.67;;
20069;SDS011;10195;50.868;4.382;2022-11-28T06:03:07;10.10;;;7.83;;
20069;SDS011;10195;50.868;4.382;2022-11-28T06:05:33;10.53;;;8.00;;
20069;SDS011;10195;50.868;4.382;2022-11-28T06:07:58;10.00;;;8.20;;
20069;SDS011;10195;50.868;4.382;2022-11-28T06:10:24;10.10;;;7.97;;
20069;SDS011;10195;50.868;4.382;2022-11-28T06:12:49;9.67;;;8.17;;
20069;SDS011;10195;50.868;4.382;2022-11-28T06:15:15;10.40;;;8.90;;
20069;SDS011;10195;50.868;4.382;2022-11-28T06:17:41;10.60;;;8.47;;
20069;SDS011;10195;50.868;4.382;2022-11-28T06:20:07;11.30;;;9.27;;
20069;SDS011;10195;50.868;4.382;2022-11-28T06:22:33;10.50;;;8.50;;
20069;SDS011;10195;50.868;4.382;2022-11-28T06:24:58;11.07;;;9.27;;
20069;SDS011;10195;50.868;4.382;2022-11-28T06:27:24;12.07;;;9.33;;
20069;SDS011;10195;50.868;4.382;2022-11-28T06:29:50;10.17;;;9.00;;
20069;SDS011;10195;50.868;4.382;2022-11-28T06:32:15;13.07;;;9.37;;
20069;SDS011;10195;50.868;4.382;2022-11-28T06:34:41;11.00;;;9.30;;
20069;SDS011;10195;50.868;4.382;2022-11-28T06:37:07;13.53;;;10.13;;
20069;SDS011;10195;50.868;4.382;2022-11-28T06:39:32;10.63;;;9.03;;
20069;SDS011;10195;50.868;4.382;2022-11-28T06:41:58;14.50;;;9.80;;
20069;SDS011;10195;50.868;4.382;2022-11-28T06:44:23;10.80;;;8.57;;
20069;SDS011;10195;50.868;4.382;2022-11-28T06:46:49;10.60;;;9.23;;
20069;SDS011;10195;50.868;4.382;2022-11-28T06:49:14;12.03;;;9.53;;
20069;SDS011;10195;50.868;4.382;2022-11-28T06:51:41;10.10;;;8.60;;
20069;SDS011;10195;50.868;4.382;2022-11-28T06:54:07;9.43;;;7.53;;
20069;SDS011;10195;50.868;4.382;2022-11-28T06:56:33;9.77;;;7.80;;
20069;SDS011;10195;50.868;4.382;2022-11-28T06:58:59;15.87;;;9.23;;
20069;SDS011;10195;50.868;4.382;2022-11-28T07:01:26;10.93;;;7.53;;
20069;SDS011;10195;50.868;4.382;2022-11-28T07:03:53;8.70;;;7.23;;
20069;SDS011;10195;50.868;4.382;2022-11-28T07:06:19;9.03;;;7.33;;
20069;SDS011;10195;50.868;4.382;2022-11-28T07:08:46;8.17;;;6.60;;
20069;SDS011;10195;50.868;4.382;2022-11-28T07:11:13;7.80;;;6.50;;
20069;SDS011;10195;50.868;4.382;2022-11-28T07:13:41;7.27;;;6.27;;
20069;SDS011;10195;50.868;4.382;2022-11-28T07:16:12;7.57;;;6.57;;
20069;SDS011;10195;50.868;4.382;2022-11-28T07:18:42;6.93;;;6.10;;
20069;SDS011;10195;50.868;4.382;2022-11-28T07:21:09;7.70;;;6.17;;
20069;SDS011;10195;50.868;4.382;2022-11-28T07:23:35;7.77;;;6.43;;
20069;SDS011;10195;50.868;4.382;2022-11-28T07:26:01;11.10;;;6.57;;
20069;SDS011;10195;50.868;4.382;2022-11-28T07:28:28;9.67;;;7.30;;
20069;SDS011;10195;50.868;4.382;2022-11-28T07:30:59;8.20;;;6.80;;
20069;SDS011;10195;50.868;4.382;2022-11-28T07:33:25;9.53;;;6.77;;
20069;SDS011;10195;50.868;4.382;2022-11-28T07:35:51;8.93;;;7.23;;
20069;SDS011;10195;50.868;4.382;2022-11-28T07:38:17;9.57;;;7.50;;
20069;SDS011;10195;50.868;4.382;2022-11-28T07:40:42;9.07;;;7.70;;
20069;SDS011;10195;50.868;4.382;2022-11-28T07:43:08;10.13;;;7.37;;
20069;SDS011;10195;50.868;4.382;2022-11-28T07:45:35;10.83;;;8.53;;
20069;SDS011;10195;50.868;4.382;2022-11-28T07:48:03;10.97;;;8.70;;
20069;SDS011;10195;50.868;4.382;2022-11-28T07:50:29;12.10;;;9.00;;
20069;SDS011;10195;50.868;4.382;2022-11-28T07:52:54;15.17;;;9.13;;
20069;SDS011;10195;50.868;4.382;2022-11-28T07:55:20;12.80;;;10.10;;
20069;SDS011;10195;50.868;4.382;2022-11-28T07:57:46;14.73;;;11.10;;
20069;SDS011;10195;50.868;4.382;2022-11-28T08:00:12;13.17;;;10.40;;
20069;SDS011;10195;50.868;4.382;2022-11-28T08:02:38;14.53;;;9.90;;
20069;SDS011;10195;50.868;4.382;2022-11-28T08:05:04;17.23;;;10.23;;
20069;SDS011;10195;50.868;4.382;2022-11-28T08:07:31;16.27;;;11.10;;
20069;SDS011;10195;50.868;4.382;2022-11-28T08:09:56;15.07;;;9.93;;
20069;SDS011;10195;50.868;4.382;2022-11-28T08:12:22;13.03;;;10.37;;
20069;SDS011;10195;50.868;4.382;2022-11-28T08:14:47;14.63;;;11.13;;
20069;SDS011;10195;50.868;4.382;2022-11-28T08:17:13;17.90;;;10.97;;
20069;SDS011;10195;50.868;4.382;2022-11-28T08:19:39;17.77;;;10.73;;
20069;SDS011;10195;50.868;4.382;2022-11-28T08:22:04;15.90;;;11.57;;
20069;SDS011;10195;50.868;4.382;2022-11-28T08:24:30;15.63;;;11.43;;
20069;SDS011;10195;50.868;4.382;2022-11-28T08:26:55;16.40;;;11.30;;
20069;SDS011;10195;50.868;4.382;2022-11-28T08:29:21;15.00;;;11.00;;
20069;SDS011;10195;50.868;4.382;2022-11-28T08:31:47;15.87;;;11.13;;
20069;SDS011;10195;50.868;4.382;2022-11-28T08:34:12;16.37;;;10.80;;
20069;SDS011;10195;50.868;4.382;2022-11-28T08:36:38;16.20;;;11.00;;
20069;SDS011;10195;50.868;4.382;2022-11-28T08:39:04;18.57;;;9.43;;
20069;SDS011;10195;50.868;4.382;2022-11-28T08:41:31;17.13;;;11.07;;
20069;SDS011;10195;50.868;4.382;2022-11-28T08:43:56;16.10;;;10.80;;
20069;SDS011;10195;50.868;4.382;2022-11-28T08:46:22;16.63;;;11.30;;
20069;SDS011;10195;50.868;4.382;2022-11-28T08:48:48;17.50;;;11.40;;
20069;SDS011;10195;50.868;4.382;2022-11-28T08:51:16;15.53;;;10.80;;
20069;SDS011;10195;50.868;4.382;2022-11-28T08:53:44;16.93;;;11.03;;
20069;SDS011;10195;50.868;4.382;2022-11-28T08:56:10;21.73;;;11.70;;
20069;SDS011;10195;50.868;4.382;2022-11-28T08:58:37;15.23;;;10.70;;
20069;SDS011;10195;50.868;4.382;2022-11-28T09:01:03;19.53;;;11.90;;
20069;SDS011;10195;50.868;4.382;2022-11-28T09:03:29;16.53;;;10.80;;
20069;SDS011;10195;50.868;4.382;2022-11-28T09:05:58;17.87;;;11.87;;
20069;SDS011;10195;50.868;4.382;2022-11-28T09:08:26;18.40;;;11.00;;
20069;SDS011;10195;50.868;4.382;2022-11-28T09:10:52;14.27;;;9.93;;
20069;SDS011;10195;50.868;4.382;2022-11-28T09:13:17;15.67;;;10.33;;
20069;SDS011;10195;50.868;4.382;2022-11-28T09:15:44;14.80;;;11.23;;
20069;SDS011;10195;50.868;4.382;2022-11-28T09:18:11;19.67;;;10.43;;
20069;SDS011;10195;50.868;4.382;2022-11-28T09:20:38;17.20;;;10.13;;
20069;SDS011;10195;50.868;4.382;2022-11-28T09:23:05;18.90;;;11.93;;
20069;SDS011;10195;50.868;4.382;2022-11-28T09:25:33;13.57;;;10.30;;
20069;SDS011;10195;50.868;4.382;2022-11-28T09:27:59;15.23;;;10.13;;
20069;SDS011;10195;50.868;4.382;2022-11-28T09:30:25;21.40;;;10.27;;
20069;SDS011;10195;50.868;4.382;2022-11-28T09:32:51;16.10;;;9.63;;
20069;SDS011;10195;50.868;4.382;2022-11-28T09:35:17;24.53;;;10.97;;
20069;SDS011;10195;50.868;4.382;2022-11-28T09:37:42;18.87;;;9.50;;
20069;SDS011;10195;50.868;4.382;2022-11-28T09:43:17;15.03;;;8.97;;
20069;SDS011;10195;50.868;4.382;2022-11-28T09:46:07;25.53;;;10.10;;
20069;SDS011;10195;50.868;4.382;2022-11-28T09:48:41;24.90;;;10.20;;
20069;SDS011;10195;50.868;4.382;2022-11-28T09:51:18;12.70;;;8.77;;
20069;SDS011;10195;50.868;4.382;2022-11-28T09:53:57;22.17;;;9.97;;
20069;SDS011;10195;50.868;4.382;2022-11-28T09:56:44;23.03;;;10.67;;
20069;SDS011;10195;50.868;4.382;2022-11-28T09:59:23;22.87;;;10.60;;
20069;SDS011;10195;50.868;4.382;2022-11-28T10:04:44;23.57;;;11.60;;
20069;SDS011;10195;50.868;4.382;2022-11-28T10:10:08;19.87;;;11.53;;
20069;SDS011;10195;50.868;4.382;2022-11-28T10:18:28;25.03;;;10.50;;
20069;SDS011;10195;50.868;4.382;2022-11-28T10:21:09;18.27;;;9.87;;
20069;SDS011;10195;50.868;4.382;2022-11-28T10:23:47;17.20;;;10.33;;
20069;SDS011;10195;50.868;4.382;2022-11-28T10:28:57;28.87;;;11.90;;
20069;SDS011;10195;50.868;4.382;2022-11-28T10:31:39;21.30;;;12.27;;
20069;SDS011;10195;50.868;4.382;2022-11-28T10:34:07;20.47;;;11.83;;
20069;SDS011;10195;50.868;4.382;2022-11-28T10:36:48;15.30;;;10.20;;
20069;SDS011;10195;50.868;4.382;2022-11-28T10:39:14;15.70;;;9.83;;
20069;SDS011;10195;50.868;4.382;2022-11-28T10:41:45;20.80;;;10.50;;
20069;SDS011;10195;50.868;4.382;2022-11-28T10:44:39;27.23;;;10.20;;
20069;SDS011;10195;50.868;4.382;2022-11-28T10:47:38;17.17;;;10.30;;
20069;SDS011;10195;50.868;4.382;2022-11-28T10:53:13;19.63;;;11.07;;
20069;SDS011;10195;50.868;4.382;2022-11-28T10:58:45;21.47;;;11.20;;
20069;SDS011;10195;50.868;4.382;2022-11-28T11:01:19;26.50;;;11.33;;
20069;SDS011;10195;50.868;4.382;2022-11-28T11:03:45;22.07;;;11.10;;
20069;SDS011;10195;50.868;4.382;2022-11-28T11:06:12;23.87;;;10.87;;
20069;SDS011;10195;50.868;4.382;2022-11-28T11:08:39;16.60;;;9.80;;
20069;SDS011;10195;50.868;4.382;2022-11-28T11:11:09;19.20;;;11.70;;
20069;SDS011;10195;50.868;4.382;2022-11-28T11:16:25;17.67;;;10.57;;
20069;SDS011;10195;50.868;4.382;2022-11-28T11:19:33;20.80;;;10.03;;
20069;SDS011;10195;50.868;4.382;2022-11-28T11:22:16;22.60;;;11.00;;
20069;SDS011;10195;50.868;4.382;2022-11-28T11:27:38;20.90;;;11.03;;
20069;SDS011;10195;50.868;4.382;2022-11-28T11:30:24;21.30;;;10.93;;
20069;SDS011;10195;50.868;4.382;2022-11-28T11:33:03;26.63;;;11.03;;
20069;SDS011;10195;50.868;4.382;2022-11-28T11:35:34;20.80;;;10.07;;
20069;SDS011;10195;50.868;4.382;2022-11-28T11:38:16;20.43;;;9.97;;
20069;SDS011;10195;50.868;4.382;2022-11-28T11:40:45;25.07;;;10.40;;
20069;SDS011;10195;50.868;4.382;2022-11-28T11:46:05;25.13;;;10.47;;
20069;SDS011;10195;50.868;4.382;2022-11-28T11:48:36;29.00;;;11.30;;
20069;SDS011;10195;50.868;4.382;2022-11-28T11:51:04;28.43;;;12.40;;
20069;SDS011;10195;50.868;4.382;2022-11-28T11:53:31;25.63;;;12.33;;
20069;SDS011;10195;50.868;4.382;2022-11-28T11:55:58;26.73;;;12.27;;
20069;SDS011;10195;50.868;4.382;2022-11-28T11:58:33;25.27;;;12.27;;
20069;SDS011;10195;50.868;4.382;2022-11-28T12:01:07;30.43;;;11.83;;
20069;SDS011;10195;50.868;4.382;2022-11-28T12:06:45;23.37;;;11.17;;
20069;SDS011;10195;50.868;4.382;2022-11-28T12:12:20;26.27;;;12.20;;
20069;SDS011;10195;50.868;4.382;2022-11-28T12:14:49;23.17;;;12.03;;
20069;SDS011;10195;50.868;4.382;2022-11-28T12:25:14;27.10;;;13.50;;
20069;SDS011;10195;50.868;4.382;2022-11-28T12:33:42;24.83;;;12.50;;
20069;SDS011;10195;50.868;4.382;2022-11-28T12:36:25;28.20;;;13.80;;
20069;SDS011;10195;50.868;4.382;2022-11-28T12:47:05;21.67;;;11.07;;
20069;SDS011;10195;50.868;4.382;2022-11-28T12:55:32;22.60;;;11.53;;
20069;SDS011;10195;50.868;4.382;2022-11-28T12:58:11;25.67;;;12.10;;
20069;SDS011;10195;50.868;4.382;2022-11-28T13:06:02;26.93;;;11.87;;
20069;SDS011;10195;50.868;4.382;2022-11-28T13:14:22;17.70;;;10.73;;
20069;SDS011;10195;50.868;4.382;2022-11-28T13:16:54;24.67;;;12.20;;
20069;SDS011;10195;50.868;4.382;2022-11-28T13:22:02;22.63;;;11.97;;
20069;SDS011;10195;50.868;4.382;2022-11-28T13:24:49;20.20;;;11.83;;
20069;SDS011;10195;50.868;4.382;2022-11-28T13:30:13;24.00;;;11.87;;
20069;SDS011;10195;50.868;4.382;2022-11-28T13:35:23;22.40;;;12.30;;
20069;SDS011;10195;50.868;4.382;2022-11-28T13:37:57;27.00;;;12.73;;
20069;SDS011;10195;50.868;4.382;2022-11-28T13:46:23;22.80;;;11.30;;
20069;SDS011;10195;50.868;4.382;2022-11-28T13:48:49;28.23;;;13.23;;
20069;SDS011;10195;50.868;4.382;2022-11-28T13:51:19;26.83;;;13.47;;
20069;SDS011;10195;50.868;4.382;2022-11-28T13:56:44;25.00;;;13.57;;
20069;SDS011;10195;50.868;4.382;2022-11-28T13:59:18;29.93;;;12.60;;
20069;SDS011;10195;50.868;4.382;2022-11-28T14:01:47;28.50;;;13.03;;
20069;SDS011;10195;50.868;4.382;2022-11-28T14:04:24;29.00;;;13.33;;
20069;SDS011;10195;50.868;4.382;2022-11-28T14:06:52;27.53;;;13.07;;
20069;SDS011;10195;50.868;4.382;2022-11-28T14:12:59;30.03;;;13.57;;
20069;SDS011;10195;50.868;4.382;2022-11-28T14:16:23;29.90;;;12.93;;
20069;SDS011;10195;50.868;4.382;2022-11-28T14:18:37;33.70;;;14.17;;
20069;SDS011;10195;50.868;4.382;2022-11-28T14:26:38;36.80;;;14.43;;
20069;SDS011;10195;50.868;4.382;2022-11-28T14:29:18;36.77;;;14.10;;
20069;SDS011;10195;50.868;4.382;2022-11-28T14:31:50;31.67;;;14.17;;
20069;SDS011;10195;50.868;4.382;2022-11-28T14:39:51;42.37;;;13.73;;
20069;SDS011;10195;50.868;4.382;2022-11-28T14:52:30;44.63;;;14.03;;
20069;SDS011;10195;50.868;4.382;2022-11-28T14:57:36;34.57;;;13.13;;
20069;SDS011;10195;50.868;4.382;2022-11-28T15:00:06;34.00;;;13.57;;
20069;SDS011;10195;50.868;4.382;2022-11-28T15:02:45;36.13;;;12.90;;
20069;SDS011;10195;50.868;4.382;2022-11-28T15:05:46;36.93;;;12.80;;
20069;SDS011;10195;50.868;4.382;2022-11-28T15:16:28;34.13;;;12.13;;
20069;SDS011;10195;50.868;4.382;2022-11-28T15:19:04;40.57;;;12.70;;
20069;SDS011;10195;50.868;4.382;2022-11-28T15:21:51;43.63;;;13.50;;
20069;SDS011;10195;50.868;4.382;2022-11-28T15:26:55;35.77;;;12.67;;
20069;SDS011;10195;50.868;4.382;2022-11-28T15:29:30;35.87;;;13.00;;
20069;SDS011;10195;50.868;4.382;2022-11-28T15:31:56;42.47;;;12.80;;
20069;SDS011;10195;50.868;4.382;2022-11-28T15:34:26;36.37;;;12.27;;
20069;SDS011;10195;50.868;4.382;2022-11-28T15:37:01;29.80;;;11.33;;
20069;SDS011;10195;50.868;4.382;2022-11-28T15:39:32;35.50;;;12.20;;
20069;SDS011;10195;50.868;4.382;2022-11-28T15:42:06;35.00;;;11.80;;
20069;SDS011;10195;50.868;4.382;2022-11-28T15:44:46;32.97;;;11.37;;
20069;SDS011;10195;50.868;4.382;2022-11-28T15:47:19;31.87;;;11.07;;
20069;SDS011;10195;50.868;4.382;2022-11-28T15:49:56;38.67;;;12.03;;
20069;SDS011;10195;50.868;4.382;2022-11-28T15:52:25;38.03;;;11.50;;
20069;SDS011;10195;50.868;4.382;2022-11-28T15:54:50;35.07;;;11.73;;
20069;SDS011;10195;50.868;4.382;2022-11-28T15:57:17;33.87;;;10.90;;
20069;SDS011;10195;50.868;4.382;2022-11-28T15:59:50;46.03;;;12.50;;
20069;SDS011;10195;50.868;4.382;2022-11-28T16:02:27;40.13;;;12.00;;
20069;SDS011;10195;50.868;4.382;2022-11-28T16:05:05;37.07;;;11.70;;
20069;SDS011;10195;50.868;4.382;2022-11-28T16:07:33;37.37;;;12.13;;
20069;SDS011;10195;50.868;4.382;2022-11-28T16:10:02;45.83;;;11.67;;
20069;SDS011;10195;50.868;4.382;2022-11-28T16:12:41;38.30;;;11.40;;
20069;SDS011;10195;50.868;4.382;2022-11-28T16:15:15;37.77;;;12.13;;
20069;SDS011;10195;50.868;4.382;2022-11-28T16:17:46;32.33;;;10.80;;
20069;SDS011;10195;50.868;4.382;2022-11-28T16:20:19;40.53;;;11.63;;
20069;SDS011;10195;50.868;4.382;2022-11-28T16:22:45;41.23;;;12.67;;
20069;SDS011;10195;50.868;4.382;2022-11-28T16:25:22;33.40;;;11.67;;
20069;SDS011;10195;50.868;4.382;2022-11-28T16:27:49;35.03;;;11.90;;
20069;SDS011;10195;50.868;4.382;2022-11-28T16:32:53;41.90;;;13.20;;
20069;SDS011;10195;50.868;4.382;2022-11-28T16:35:35;34.50;;;11.93;;
20069;SDS011;10195;50.868;4.382;2022-11-28T16:38:15;44.53;;;12.50;;
20069;SDS011;10195;50.868;4.382;2022-11-28T16:40:48;51.50;;;14.23;;
20069;SDS011;10195;50.868;4.382;2022-11-28T16:43:29;36.97;;;12.40;;
20069;SDS011;10195;50.868;4.382;2022-11-28T16:46:01;28.00;;;11.17;;
20069;SDS011;10195;50.868;4.382;2022-11-28T16:48:34;43.70;;;13.33;;
20069;SDS011;10195;50.868;4.382;2022-11-28T16:53:43;40.00;;;13.23;;
20069;SDS011;10195;50.868;4.382;2022-11-28T16:56:22;45.90;;;13.77;;
20069;SDS011;10195;50.868;4.382;2022-11-28T16:59:14;47.47;;;13.80;;
20069;SDS011;10195;50.868;4.382;2022-11-28T17:01:42;34.93;;;11.70;;
20069;SDS011;10195;50.868;4.382;2022-11-28T17:04:23;45.70;;;13.07;;
20069;SDS011;10195;50.868;4.382;2022-11-28T17:06:50;34.87;;;11.20;;
20069;SDS011;10195;50.868;4.382;2022-11-28T17:09:17;49.43;;;12.70;;
20069;SDS011;10195;50.868;4.382;2022-11-28T17:11:54;39.03;;;11.10;;
20069;SDS011;10195;50.868;4.382;2022-11-28T17:14:20;33.37;;;10.30;;
20069;SDS011;10195;50.868;4.382;2022-11-28T17:16:46;40.70;;;10.80;;
20069;SDS011;10195;50.868;4.382;2022-11-28T17:19:11;33.83;;;12.23;;
20069;SDS011;10195;50.868;4.382;2022-11-28T17:24:09;30.33;;;10.80;;
20069;SDS011;10195;50.868;4.382;2022-11-28T17:26:40;34.57;;;11.60;;
20069;SDS011;10195;50.868;4.382;2022-11-28T17:29:08;36.33;;;11.90;;
20069;SDS011;10195;50.868;4.382;2022-11-28T17:31:34;32.00;;;11.40;;
20069;SDS011;10195;50.868;4.382;2022-11-28T17:34:00;41.20;;;11.60;;
20069;SDS011;10195;50.868;4.382;2022-11-28T17:36:26;43.83;;;11.60;;
20069;SDS011;10195;50.868;4.382;2022-11-28T17:38:52;45.53;;;11.77;;
20069;SDS011;10195;50.868;4.382;2022-11-28T17:41:17;32.53;;;11.23;;
20069;SDS011;10195;50.868;4.382;2022-11-28T17:43:43;35.70;;;10.80;;
20069;SDS011;10195;50.868;4.382;2022-11-28T17:46:08;41.03;;;11.23;;
20069;SDS011;10195;50.868;4.382;2022-11-28T17:48:34;42.53;;;11.40;;
20069;SDS011;10195;50.868;4.382;2022-11-28T17:51:00;38.20;;;11.40;;
20069;SDS011;10195;50.868;4.382;2022-11-28T17:53:28;35.37;;;11.13;;
20069;SDS011;10195;50.868;4.382;2022-11-28T17:55:54;35.90;;;11.93;;
20069;SDS011;10195;50.868;4.382;2022-11-28T17:58:23;45.80;;;12.10;;
20069;SDS011;10195;50.868;4.382;2022-11-28T18:00:50;46.47;;;12.73;;
20069;SDS011;10195;50.868;4.382;2022-11-28T18:03:16;42.27;;;12.63;;
20069;SDS011;10195;50.868;4.382;2022-11-28T18:05:43;44.20;;;12.10;;
20069;SDS011;10195;50.868;4.382;2022-11-28T18:08:09;44.97;;;11.67;;
20069;SDS011;10195;50.868;4.382;2022-11-28T18:10:36;34.63;;;11.93;;
20069;SDS011;10195;50.868;4.382;2022-11-28T18:13:02;35.83;;;12.90;;
20069;SDS011;10195;50.868;4.382;2022-11-28T18:15:28;43.47;;;13.07;;
20069;SDS011;10195;50.868;4.382;2022-11-28T18:17:56;41.80;;;13.40;;
20069;SDS011;10195;50.868;4.382;2022-11-28T18:20:21;39.60;;;12.50;;